sensor_id;sensor_type;location;lat;lon;timestamp;P1;durP1;ratioP1;P2;durP2;ratioP2
51981;SDS011;37998;53.416;6.730;2022-11-18T00:01:46;10.00;;;8.65;;
51981;SDS011;37998;53.416;6.730;2022-11-18T00:04:12;9.73;;;8.63;;
51981;SDS011;37998;53.416;6.730;2022-11-18T00:06:38;9.80;;;8.38;;
51981;SDS011;37998;53.416;6.730;2022-11-18T00:09:04;11.55;;;8.93;;
51981;SDS011;37998;53.416;6.730;2022-11-18T00:11:30;9.40;;;8.32;;
51981;SDS011;37998;53.416;6.730;2022-11-18T00:14:15;9.77;;;8.45;;
51981;SDS011;37998;53.416;6.730;2022-11-18T00:16:58;11.45;;;8.85;;
51981;SDS011;37998;53.416;6.730;2022-11-18T00:19:37;9.43;;;8.40;;
51981;SDS011;37998;53.416;6.730;2022-11-18T00:22:05;10.77;;;9.45;;
51981;SDS011;37998;53.416;6.730;2022-11-18T00:24:31;10.20;;;8.60;;
51981;SDS011;37998;53.416;6.730;2022-11-18T00:26:57;10.32;;;9.05;;
51981;SDS011;37998;53.416;6.730;2022-11-18T00:29:23;10.10;;;8.77;;
51981;SDS011;37998;53.416;6.730;2022-11-18T00:31:52;9.85;;;8.38;;
51981;SDS011;37998;53.416;6.730;2022-11-18T00:34:18;12.10;;;9.52;;
51981;SDS011;37998;53.416;6.730;2022-11-18T00:36:45;10.13;;;8.38;;
51981;SDS011;37998;53.416;6.730;2022-11-18T00:39:12;10.50;;;8.85;;
51981;SDS011;37998;53.416;6.730;2022-11-18T00:41:40;9.73;;;8.73;;
51981;SDS011;37998;53.416;6.730;2022-11-18T00:44:24;10.30;;;8.68;;
51981;SDS011;37998;53.416;6.730;2022-11-18T00:46:50;10.75;;;8.70;;
51981;SDS011;37998;53.416;6.730;2022-11-18T00:49:16;11.68;;;8.85;;
51981;SDS011;37998;53.416;6.730;2022-11-18T00:51:41;11.80;;;9.73;;
51981;SDS011;37998;53.416;6.730;2022-11-18T00:54:07;11.57;;;8.73;;
51981;SDS011;37998;53.416;6.730;2022-11-18T00:56:33;9.98;;;8.23;;
51981;SDS011;37998;53.416;6.730;2022-11-18T00:58:58;10.05;;;8.23;;
51981;SDS011;37998;53.416;6.730;2022-11-18T01:01:24;11.52;;;9.10;;
51981;SDS011;37998;53.416;6.730;2022-11-18T01:03:50;12.80;;;9.02;;
51981;SDS011;37998;53.416;6.730;2022-11-18T01:06:16;12.13;;;9.20;;
51981;SDS011;37998;53.416;6.730;2022-11-18T01:08:42;11.70;;;9.48;;
51981;SDS011;37998;53.416;6.730;2022-11-18T01:11:07;12.75;;;9.77;;
51981;SDS011;37998;53.416;6.730;2022-11-18T01:13:52;11.65;;;9.45;;
51981;SDS011;37998;53.416;6.730;2022-11-18T01:16:18;13.50;;;9.85;;
51981;SDS011;37998;53.416;6.730;2022-11-18T01:18:49;12.75;;;9.65;;
51981;SDS011;37998;53.416;6.730;2022-11-18T01:21:15;12.10;;;10.00;;
51981;SDS011;37998;53.416;6.730;2022-11-18T01:23:41;12.35;;;9.80;;
51981;SDS011;37998;53.416;6.730;2022-11-18T01:26:07;12.88;;;10.25;;
51981;SDS011;37998;53.416;6.730;2022-11-18T01:28:35;14.82;;;10.57;;
51981;SDS011;37998;53.416;6.730;2022-11-18T01:31:04;14.43;;;10.18;;
51981;SDS011;37998;53.416;6.730;2022-11-18T01:33:35;13.52;;;10.30;;
51981;SDS011;37998;53.416;6.730;2022-11-18T01:36:00;13.30;;;9.98;;
51981;SDS011;37998;53.416;6.730;2022-11-18T01:38:27;13.75;;;10.23;;
51981;SDS011;37998;53.416;6.730;2022-11-18T01:40:54;13.23;;;9.85;;
51981;SDS011;37998;53.416;6.730;2022-11-18T01:43:20;12.40;;;10.07;;
51981;SDS011;37998;53.416;6.730;2022-11-18T01:45:47;13.95;;;11.00;;
51981;SDS011;37998;53.416;6.730;2022-11-18T01:48:36;14.93;;;10.75;;
51981;SDS011;37998;53.416;6.730;2022-11-18T01:51:09;14.27;;;10.07;;
51981;SDS011;37998;53.416;6.730;2022-11-18T01:53:41;12.20;;;10.25;;
51981;SDS011;37998;53.416;6.730;2022-11-18T01:56:15;13.27;;;10.18;;
51981;SDS011;37998;53.416;6.730;2022-11-18T01:58:49;17.77;;;10.25;;
51981;SDS011;37998;53.416;6.730;2022-11-18T02:01:21;12.25;;;9.98;;
51981;SDS011;37998;53.416;6.730;2022-11-18T02:03:47;14.43;;;10.32;;
51981;SDS011;37998;53.416;6.730;2022-11-18T02:06:14;18.95;;;11.23;;
51981;SDS011;37998;53.416;6.730;2022-11-18T02:08:40;11.55;;;9.77;;
51981;SDS011;37998;53.416;6.730;2022-11-18T02:11:13;14.50;;;10.35;;
51981;SDS011;37998;53.416;6.730;2022-11-18T02:13:59;17.55;;;11.32;;
51981;SDS011;37998;53.416;6.730;2022-11-18T02:16:37;18.27;;;11.60;;
51981;SDS011;37998;53.416;6.730;2022-11-18T02:24:56;18.95;;;11.73;;
51981;SDS011;37998;53.416;6.730;2022-11-18T02:27:53;15.57;;;10.88;;
51981;SDS011;37998;53.416;6.730;2022-11-18T02:30:27;18.48;;;12.40;;
51981;SDS011;37998;53.416;6.730;2022-11-18T02:33:07;19.85;;;11.52;;
51981;SDS011;37998;53.416;6.730;2022-11-18T02:35:38;16.80;;;11.75;;
51981;SDS011;37998;53.416;6.730;2022-11-18T02:38:15;19.08;;;12.50;;
51981;SDS011;37998;53.416;6.730;2022-11-18T02:40:54;16.05;;;12.02;;
51981;SDS011;37998;53.416;6.730;2022-11-18T02:43:35;17.15;;;11.68;;
51981;SDS011;37998;53.416;6.730;2022-11-18T02:46:08;17.38;;;11.40;;
51981;SDS011;37998;53.416;6.730;2022-11-18T02:48:40;17.00;;;11.73;;
51981;SDS011;37998;53.416;6.730;2022-11-18T02:51:15;20.55;;;12.38;;
51981;SDS011;37998;53.416;6.730;2022-11-18T02:53:46;19.35;;;12.00;;
51981;SDS011;37998;53.416;6.730;2022-11-18T02:56:14;17.45;;;12.18;;
51981;SDS011;37998;53.416;6.730;2022-11-18T02:58:40;20.23;;;11.68;;
51981;SDS011;37998;53.416;6.730;2022-11-18T03:01:06;19.40;;;11.45;;
51981;SDS011;37998;53.416;6.730;2022-11-18T03:03:44;18.05;;;11.23;;
51981;SDS011;37998;53.416;6.730;2022-11-18T03:11:33;18.40;;;11.82;;
51981;SDS011;37998;53.416;6.730;2022-11-18T03:14:08;17.08;;;10.90;;
51981;SDS011;37998;53.416;6.730;2022-11-18T03:16:55;15.48;;;10.38;;
51981;SDS011;37998;53.416;6.730;2022-11-18T03:24:34;14.75;;;11.07;;
51981;SDS011;37998;53.416;6.730;2022-11-18T03:27:09;15.90;;;10.95;;
51981;SDS011;37998;53.416;6.730;2022-11-18T03:29:46;17.67;;;10.95;;
51981;SDS011;37998;53.416;6.730;2022-11-18T03:32:22;19.00;;;11.60;;
51981;SDS011;37998;53.416;6.730;2022-11-18T03:34:52;16.23;;;10.38;;
51981;SDS011;37998;53.416;6.730;2022-11-18T03:37:40;17.60;;;10.95;;
51981;SDS011;37998;53.416;6.730;2022-11-18T03:40:20;20.25;;;10.82;;
51981;SDS011;37998;53.416;6.730;2022-11-18T03:42:51;16.00;;;11.32;;
51981;SDS011;37998;53.416;6.730;2022-11-18T03:45:23;13.82;;;10.07;;
51981;SDS011;37998;53.416;6.730;2022-11-18T03:47:54;16.17;;;11.02;;
51981;SDS011;37998;53.416;6.730;2022-11-18T03:50:28;14.82;;;9.90;;
51981;SDS011;37998;53.416;6.730;2022-11-18T03:52:59;15.85;;;9.50;;
51981;SDS011;37998;53.416;6.730;2022-11-18T03:55:28;13.90;;;11.38;;
51981;SDS011;37998;53.416;6.730;2022-11-18T04:00:56;16.67;;;10.60;;
51981;SDS011;37998;53.416;6.730;2022-11-18T04:03:28;14.60;;;10.27;;
51981;SDS011;37998;53.416;6.730;2022-11-18T04:05:56;16.40;;;10.77;;
51981;SDS011;37998;53.416;6.730;2022-11-18T04:08:29;14.07;;;10.32;;
51981;SDS011;37998;53.416;6.730;2022-11-18T04:11:02;15.80;;;10.57;;
51981;SDS011;37998;53.416;6.730;2022-11-18T04:13:55;16.52;;;10.13;;
51981;SDS011;37998;53.416;6.730;2022-11-18T04:16:22;14.50;;;10.77;;
51981;SDS011;37998;53.416;6.730;2022-11-18T04:18:47;14.52;;;10.07;;
51981;SDS011;37998;53.416;6.730;2022-11-18T04:21:13;15.55;;;10.35;;
51981;SDS011;37998;53.416;6.730;2022-11-18T04:23:38;14.50;;;9.85;;
51981;SDS011;37998;53.416;6.730;2022-11-18T04:26:04;15.85;;;10.10;;
51981;SDS011;37998;53.416;6.730;2022-11-18T04:28:30;13.82;;;9.73;;
51981;SDS011;37998;53.416;6.730;2022-11-18T04:30:55;14.82;;;10.07;;
51981;SDS011;37998;53.416;6.730;2022-11-18T04:33:21;19.88;;;10.00;;
51981;SDS011;37998;53.416;6.730;2022-11-18T04:35:46;15.10;;;10.05;;
51981;SDS011;37998;53.416;6.730;2022-11-18T04:38:12;13.18;;;9.15;;
51981;SDS011;37998;53.416;6.730;2022-11-18T04:40:38;12.55;;;8.48;;
51981;SDS011;37998;53.416;6.730;2022-11-18T04:43:03;14.77;;;9.27;;
51981;SDS011;37998;53.416;6.730;2022-11-18T04:45:29;15.60;;;10.55;;
51981;SDS011;37998;53.416;6.730;2022-11-18T04:47:54;14.27;;;9.15;;
51981;SDS011;37998;53.416;6.730;2022-11-18T04:50:20;16.65;;;10.63;;
51981;SDS011;37998;53.416;6.730;2022-11-18T04:52:46;14.55;;;10.15;;
51981;SDS011;37998;53.416;6.730;2022-11-18T04:55:11;15.13;;;9.82;;
51981;SDS011;37998;53.416;6.730;2022-11-18T04:57:37;13.93;;;10.05;;
51981;SDS011;37998;53.416;6.730;2022-11-18T05:00:03;12.82;;;9.35;;
51981;SDS011;37998;53.416;6.730;2022-11-18T05:02:29;13.95;;;9.65;;
51981;SDS011;37998;53.416;6.730;2022-11-18T05:04:54;13.77;;;9.23;;
51981;SDS011;37998;53.416;6.730;2022-11-18T05:07:20;15.77;;;10.10;;
51981;SDS011;37998;53.416;6.730;2022-11-18T05:09:45;13.00;;;9.50;;
51981;SDS011;37998;53.416;6.730;2022-11-18T05:12:12;14.18;;;9.57;;
51981;SDS011;37998;53.416;6.730;2022-11-18T05:14:57;17.52;;;10.15;;
51981;SDS011;37998;53.416;6.730;2022-11-18T05:17:23;15.75;;;10.23;;
51981;SDS011;37998;53.416;6.730;2022-11-18T05:19:48;17.85;;;10.38;;
51981;SDS011;37998;53.416;6.730;2022-11-18T05:22:14;14.00;;;10.00;;
51981;SDS011;37998;53.416;6.730;2022-11-18T05:24:40;15.75;;;11.00;;
51981;SDS011;37998;53.416;6.730;2022-11-18T05:27:06;16.08;;;10.32;;
51981;SDS011;37998;53.416;6.730;2022-11-18T05:29:32;16.70;;;10.85;;
51981;SDS011;37998;53.416;6.730;2022-11-18T05:31:57;12.80;;;9.70;;
51981;SDS011;37998;53.416;6.730;2022-11-18T05:34:23;17.27;;;9.90;;
51981;SDS011;37998;53.416;6.730;2022-11-18T05:36:49;13.60;;;9.52;;
51981;SDS011;37998;53.416;6.730;2022-11-18T05:39:15;15.25;;;9.80;;
51981;SDS011;37998;53.416;6.730;2022-11-18T05:41:40;13.43;;;10.00;;
51981;SDS011;37998;53.416;6.730;2022-11-18T05:44:25;15.85;;;10.20;;
51981;SDS011;37998;53.416;6.730;2022-11-18T05:46:50;15.73;;;10.35;;
51981;SDS011;37998;53.416;6.730;2022-11-18T05:49:16;18.60;;;9.82;;
51981;SDS011;37998;53.416;6.730;2022-11-18T05:51:42;15.85;;;10.85;;
51981;SDS011;37998;53.416;6.730;2022-11-18T05:54:08;20.25;;;10.27;;
51981;SDS011;37998;53.416;6.730;2022-11-18T05:56:35;20.30;;;10.52;;
51981;SDS011;37998;53.416;6.730;2022-11-18T05:59:03;18.65;;;10.52;;
51981;SDS011;37998;53.416;6.730;2022-11-18T06:01:36;16.20;;;10.35;;
51981;SDS011;37998;53.416;6.730;2022-11-18T06:04:08;16.15;;;9.98;;
51981;SDS011;37998;53.416;6.730;2022-11-18T06:07:05;19.25;;;11.20;;
51981;SDS011;37998;53.416;6.730;2022-11-18T06:09:54;18.63;;;10.93;;
51981;SDS011;37998;53.416;6.730;2022-11-18T06:12:23;17.30;;;11.10;;
51981;SDS011;37998;53.416;6.730;2022-11-18T06:14:55;17.80;;;10.75;;
51981;SDS011;37998;53.416;6.730;2022-11-18T06:17:26;17.08;;;10.20;;
51981;SDS011;37998;53.416;6.730;2022-11-18T06:20:04;16.90;;;9.82;;
51981;SDS011;37998;53.416;6.730;2022-11-18T06:22:30;15.57;;;9.50;;
51981;SDS011;37998;53.416;6.730;2022-11-18T06:24:56;14.55;;;9.38;;
51981;SDS011;37998;53.416;6.730;2022-11-18T06:27:21;18.20;;;9.93;;
51981;SDS011;37998;53.416;6.730;2022-11-18T06:29:47;17.60;;;10.93;;
51981;SDS011;37998;53.416;6.730;2022-11-18T06:32:12;20.42;;;10.35;;
51981;SDS011;37998;53.416;6.730;2022-11-18T06:34:38;16.42;;;10.07;;
51981;SDS011;37998;53.416;6.730;2022-11-18T06:37:14;15.63;;;11.85;;
51981;SDS011;37998;53.416;6.730;2022-11-18T06:39:40;14.95;;;8.90;;
51981;SDS011;37998;53.416;6.730;2022-11-18T06:42:06;18.45;;;10.88;;
51981;SDS011;37998;53.416;6.730;2022-11-18T06:44:32;18.27;;;11.80;;
51981;SDS011;37998;53.416;6.730;2022-11-18T06:46:58;17.02;;;9.65;;
51981;SDS011;37998;53.416;6.730;2022-11-18T06:49:24;17.33;;;10.18;;
51981;SDS011;37998;53.416;6.730;2022-11-18T06:51:50;15.32;;;9.90;;
51981;SDS011;37998;53.416;6.730;2022-11-18T06:54:16;17.08;;;10.45;;
51981;SDS011;37998;53.416;6.730;2022-11-18T06:56:42;15.50;;;9.57;;
51981;SDS011;37998;53.416;6.730;2022-11-18T06:59:08;19.15;;;10.65;;
51981;SDS011;37998;53.416;6.730;2022-11-18T07:01:34;18.42;;;10.75;;
51981;SDS011;37998;53.416;6.730;2022-11-18T07:04:01;16.90;;;10.63;;
51981;SDS011;37998;53.416;6.730;2022-11-18T07:06:29;20.75;;;11.73;;
51981;SDS011;37998;53.416;6.730;2022-11-18T07:08:58;16.65;;;11.40;;
51981;SDS011;37998;53.416;6.730;2022-11-18T07:11:25;20.52;;;11.75;;
51981;SDS011;37998;53.416;6.730;2022-11-18T07:13:51;22.15;;;11.43;;
51981;SDS011;37998;53.416;6.730;2022-11-18T07:16:18;20.52;;;11.40;;
51981;SDS011;37998;53.416;6.730;2022-11-18T07:18:45;24.58;;;12.18;;
51981;SDS011;37998;53.416;6.730;2022-11-18T07:21:13;19.35;;;13.05;;
51981;SDS011;37998;53.416;6.730;2022-11-18T07:23:47;22.55;;;12.18;;
51981;SDS011;37998;53.416;6.730;2022-11-18T07:26:13;18.98;;;12.00;;
51981;SDS011;37998;53.416;6.730;2022-11-18T07:28:39;20.73;;;13.23;;
51981;SDS011;37998;53.416;6.730;2022-11-18T07:31:08;22.45;;;13.43;;
51981;SDS011;37998;53.416;6.730;2022-11-18T07:33:37;20.48;;;12.60;;
51981;SDS011;37998;53.416;6.730;2022-11-18T07:36:05;20.42;;;13.00;;
51981;SDS011;37998;53.416;6.730;2022-11-18T07:38:36;20.13;;;13.02;;
51981;SDS011;37998;53.416;6.730;2022-11-18T07:41:12;18.45;;;12.18;;
51981;SDS011;37998;53.416;6.730;2022-11-18T07:43:40;22.42;;;13.55;;
51981;SDS011;37998;53.416;6.730;2022-11-18T07:48:39;22.75;;;13.55;;
51981;SDS011;37998;53.416;6.730;2022-11-18T07:51:06;24.30;;;14.15;;
51981;SDS011;37998;53.416;6.730;2022-11-18T07:53:32;20.38;;;13.70;;
51981;SDS011;37998;53.416;6.730;2022-11-18T07:55:59;27.45;;;14.27;;
51981;SDS011;37998;53.416;6.730;2022-11-18T07:58:25;25.55;;;14.50;;
51981;SDS011;37998;53.416;6.730;2022-11-18T08:00:51;21.35;;;14.88;;
51981;SDS011;37998;53.416;6.730;2022-11-18T08:03:17;22.65;;;14.95;;
51981;SDS011;37998;53.416;6.730;2022-11-18T08:05:42;24.70;;;14.55;;
51981;SDS011;37998;53.416;6.730;2022-11-18T08:08:08;23.70;;;15.23;;
51981;SDS011;37998;53.416;6.730;2022-11-18T08:10:35;24.65;;;14.02;;
51981;SDS011;37998;53.416;6.730;2022-11-18T08:13:01;27.67;;;14.93;;
51981;SDS011;37998;53.416;6.730;2022-11-18T08:15:26;23.92;;;14.13;;
51981;SDS011;37998;53.416;6.730;2022-11-18T08:17:52;22.85;;;14.30;;
51981;SDS011;37998;53.416;6.730;2022-11-18T08:20:18;22.92;;;13.90;;
51981;SDS011;37998;53.416;6.730;2022-11-18T08:22:43;22.63;;;14.50;;
51981;SDS011;37998;53.416;6.730;2022-11-18T08:25:09;25.48;;;14.90;;
51981;SDS011;37998;53.416;6.730;2022-11-18T08:27:35;25.10;;;15.05;;
51981;SDS011;37998;53.416;6.730;2022-11-18T08:30:00;24.33;;;15.13;;
51981;SDS011;37998;53.416;6.730;2022-11-18T08:32:26;23.55;;;15.50;;
51981;SDS011;37998;53.416;6.730;2022-11-18T08:34:52;25.23;;;16.05;;
51981;SDS011;37998;53.416;6.730;2022-11-18T08:37:17;27.20;;;15.93;;
51981;SDS011;37998;53.416;6.730;2022-11-18T08:39:43;23.52;;;16.00;;
51981;SDS011;37998;53.416;6.730;2022-11-18T08:42:09;26.75;;;16.45;;
51981;SDS011;37998;53.416;6.730;2022-11-18T08:44:34;29.75;;;15.25;;
51981;SDS011;37998;53.416;6.730;2022-11-18T08:47:00;22.33;;;15.82;;
51981;SDS011;37998;53.416;6.730;2022-11-18T08:49:26;23.55;;;15.30;;
51981;SDS011;37998;53.416;6.730;2022-11-18T08:51:52;22.63;;;14.25;;
51981;SDS011;37998;53.416;6.730;2022-11-18T08:54:18;24.83;;;15.68;;
51981;SDS011;37998;53.416;6.730;2022-11-18T08:56:44;23.92;;;14.95;;
51981;SDS011;37998;53.416;6.730;2022-11-18T08:59:09;23.52;;;14.50;;
51981;SDS011;37998;53.416;6.730;2022-11-18T09:01:36;25.70;;;14.88;;
51981;SDS011;37998;53.416;6.730;2022-11-18T09:04:02;27.75;;;16.83;;
51981;SDS011;37998;53.416;6.730;2022-11-18T09:06:28;25.73;;;17.17;;
51981;SDS011;37998;53.416;6.730;2022-11-18T09:08:54;25.98;;;16.00;;
51981;SDS011;37998;53.416;6.730;2022-11-18T09:11:21;25.30;;;16.45;;
51981;SDS011;37998;53.416;6.730;2022-11-18T09:13:55;27.48;;;17.23;;
51981;SDS011;37998;53.416;6.730;2022-11-18T09:16:22;27.17;;;17.13;;
51981;SDS011;37998;53.416;6.730;2022-11-18T09:18:49;28.40;;;17.23;;
51981;SDS011;37998;53.416;6.730;2022-11-18T09:21:15;26.17;;;17.33;;
51981;SDS011;37998;53.416;6.730;2022-11-18T09:23:41;31.25;;;17.50;;
51981;SDS011;37998;53.416;6.730;2022-11-18T09:26:08;31.35;;;18.30;;
51981;SDS011;37998;53.416;6.730;2022-11-18T09:28:36;30.17;;;17.77;;
51981;SDS011;37998;53.416;6.730;2022-11-18T09:31:06;26.35;;;17.65;;
51981;SDS011;37998;53.416;6.730;2022-11-18T09:33:34;27.85;;;17.00;;
51981;SDS011;37998;53.416;6.730;2022-11-18T09:36:00;28.00;;;18.52;;
51981;SDS011;37998;53.416;6.730;2022-11-18T09:38:30;27.83;;;17.80;;
51981;SDS011;37998;53.416;6.730;2022-11-18T09:43:48;28.35;;;16.67;;
51981;SDS011;37998;53.416;6.730;2022-11-18T09:48:56;34.45;;;17.58;;
51981;SDS011;37998;53.416;6.730;2022-11-18T09:51:46;31.55;;;18.08;;
51981;SDS011;37998;53.416;6.730;2022-11-18T09:56:45;32.53;;;18.77;;
51981;SDS011;37998;53.416;6.730;2022-11-18T09:59:12;31.90;;;19.40;;
51981;SDS011;37998;53.416;6.730;2022-11-18T10:01:40;28.83;;;18.75;;
51981;SDS011;37998;53.416;6.730;2022-11-18T10:04:16;34.78;;;20.00;;
51981;SDS011;37998;53.416;6.730;2022-11-18T10:06:43;29.88;;;19.02;;
51981;SDS011;37998;53.416;6.730;2022-11-18T10:22:58;32.58;;;19.20;;
51981;SDS011;37998;53.416;6.730;2022-11-18T10:25:27;30.58;;;18.38;;
51981;SDS011;37998;53.416;6.730;2022-11-18T10:27:52;30.70;;;19.40;;
51981;SDS011;37998;53.416;6.730;2022-11-18T10:30:24;30.27;;;19.83;;
51981;SDS011;37998;53.416;6.730;2022-11-18T10:33:00;33.60;;;19.33;;
51981;SDS011;37998;53.416;6.730;2022-11-18T10:35:37;31.60;;;20.55;;
51981;SDS011;37998;53.416;6.730;2022-11-18T10:40:39;29.67;;;19.25;;
51981;SDS011;37998;53.416;6.730;2022-11-18T10:43:10;27.40;;;18.92;;
51981;SDS011;37998;53.416;6.730;2022-11-18T10:45:38;28.42;;;19.25;;
51981;SDS011;37998;53.416;6.730;2022-11-18T10:48:07;27.50;;;19.27;;
51981;SDS011;37998;53.416;6.730;2022-11-18T10:53:04;28.83;;;20.02;;
51981;SDS011;37998;53.416;6.730;2022-11-18T10:55:32;27.27;;;18.95;;
51981;SDS011;37998;53.416;6.730;2022-11-18T10:58:16;31.30;;;19.67;;
51981;SDS011;37998;53.416;6.730;2022-11-18T11:00:45;28.77;;;19.33;;
51981;SDS011;37998;53.416;6.730;2022-11-18T11:03:35;30.42;;;20.08;;
51981;SDS011;37998;53.416;6.730;2022-11-18T11:08:49;28.05;;;19.58;;
51981;SDS011;37998;53.416;6.730;2022-11-18T11:14:27;32.60;;;20.33;;
51981;SDS011;37998;53.416;6.730;2022-11-18T11:19:47;28.83;;;20.45;;
51981;SDS011;37998;53.416;6.730;2022-11-18T11:22:17;30.95;;;20.25;;
51981;SDS011;37998;53.416;6.730;2022-11-18T11:24:43;25.33;;;17.85;;
51981;SDS011;37998;53.416;6.730;2022-11-18T11:27:21;28.10;;;19.08;;
51981;SDS011;37998;53.416;6.730;2022-11-18T11:30:07;31.17;;;20.60;;
51981;SDS011;37998;53.416;6.730;2022-11-18T11:33:13;29.67;;;20.27;;
51981;SDS011;37998;53.416;6.730;2022-11-18T11:38:16;32.95;;;20.40;;
51981;SDS011;37998;53.416;6.730;2022-11-18T11:43:57;27.45;;;19.33;;
51981;SDS011;37998;53.416;6.730;2022-11-18T11:47:05;28.35;;;19.23;;
51981;SDS011;37998;53.416;6.730;2022-11-18T11:53:02;30.45;;;18.48;;
51981;SDS011;37998;53.416;6.730;2022-11-18T11:58:18;29.48;;;19.10;;
51981;SDS011;37998;53.416;6.730;2022-11-18T12:01:00;27.70;;;18.67;;
51981;SDS011;37998;53.416;6.730;2022-11-18T12:03:45;30.00;;;18.60;;
51981;SDS011;37998;53.416;6.730;2022-11-18T12:06:14;25.83;;;17.60;;
51981;SDS011;37998;53.416;6.730;2022-11-18T12:09:04;27.75;;;17.15;;
51981;SDS011;37998;53.416;6.730;2022-11-18T12:11:47;24.60;;;15.45;;
51981;SDS011;37998;53.416;6.730;2022-11-18T12:18:38;22.33;;;15.55;;
51981;SDS011;37998;53.416;6.730;2022-11-18T12:20:42;21.77;;;15.55;;
51981;SDS011;37998;53.416;6.730;2022-11-18T12:25:49;25.27;;;17.00;;
51981;SDS011;37998;53.416;6.730;2022-11-18T12:33:46;26.80;;;17.83;;
51981;SDS011;37998;53.416;6.730;2022-11-18T12:36:36;25.50;;;17.98;;
51981;SDS011;37998;53.416;6.730;2022-11-18T12:50:51;27.63;;;18.25;;
51981;SDS011;37998;53.416;6.730;2022-11-18T12:55:53;30.88;;;21.38;;
51981;SDS011;37998;53.416;6.730;2022-11-18T12:58:21;33.50;;;20.75;;
51981;SDS011;37998;53.416;6.730;2022-11-18T13:00:48;30.13;;;21.48;;
51981;SDS011;37998;53.416;6.730;2022-11-18T13:03:22;35.90;;;21.50;;
51981;SDS011;37998;53.416;6.730;2022-11-18T13:05:50;35.08;;;22.35;;
51981;SDS011;37998;53.416;6.730;2022-11-18T13:08:42;34.17;;;21.80;;
51981;SDS011;37998;53.416;6.730;2022-11-18T13:11:09;35.22;;;21.48;;
51981;SDS011;37998;53.416;6.730;2022-11-18T13:13:58;30.90;;;20.42;;
51981;SDS011;37998;53.416;6.730;2022-11-18T13:16:44;30.83;;;20.70;;
51981;SDS011;37998;53.416;6.730;2022-11-18T13:19:28;30.95;;;21.17;;
51981;SDS011;37998;53.416;6.730;2022-11-18T13:21:55;30.73;;;21.35;;
51981;SDS011;37998;53.416;6.730;2022-11-18T13:24:42;32.35;;;22.42;;
51981;SDS011;37998;53.416;6.730;2022-11-18T13:27:11;34.60;;;23.10;;
51981;SDS011;37998;53.416;6.730;2022-11-18T13:29:49;37.33;;;23.52;;
51981;SDS011;37998;53.416;6.730;2022-11-18T13:32:25;36.67;;;24.10;;
51981;SDS011;37998;53.416;6.730;2022-11-18T13:34:53;39.25;;;24.45;;
51981;SDS011;37998;53.416;6.730;2022-11-18T13:37:27;37.95;;;24.20;;
51981;SDS011;37998;53.416;6.730;2022-11-18T13:39:54;35.60;;;22.58;;
51981;SDS011;37998;53.416;6.730;2022-11-18T13:42:21;32.78;;;23.33;;
51981;SDS011;37998;53.416;6.730;2022-11-18T13:44:52;32.72;;;22.95;;
51981;SDS011;37998;53.416;6.730;2022-11-18T13:47:24;29.75;;;21.33;;
51981;SDS011;37998;53.416;6.730;2022-11-18T13:50:02;33.65;;;21.42;;
51981;SDS011;37998;53.416;6.730;2022-11-18T13:55:38;30.00;;;20.20;;
51981;SDS011;37998;53.416;6.730;2022-11-18T14:01:02;29.70;;;21.58;;
51981;SDS011;37998;53.416;6.730;2022-11-18T14:06:11;28.05;;;18.85;;
51981;SDS011;37998;53.416;6.730;2022-11-18T14:08:47;27.67;;;18.83;;
51981;SDS011;37998;53.416;6.730;2022-11-18T14:11:14;26.98;;;19.67;;
51981;SDS011;37998;53.416;6.730;2022-11-18T14:13:59;27.52;;;19.13;;
51981;SDS011;37998;53.416;6.730;2022-11-18T14:16:35;26.48;;;19.75;;
51981;SDS011;37998;53.416;6.730;2022-11-18T14:19:03;26.63;;;18.17;;
51981;SDS011;37998;53.416;6.730;2022-11-18T14:21:30;23.52;;;17.02;;
51981;SDS011;37998;53.416;6.730;2022-11-18T14:24:02;22.30;;;17.23;;
51981;SDS011;37998;53.416;6.730;2022-11-18T14:26:29;22.90;;;17.88;;
51981;SDS011;37998;53.416;6.730;2022-11-18T14:28:56;26.23;;;18.63;;
51981;SDS011;37998;53.416;6.730;2022-11-18T14:31:25;25.60;;;19.13;;
51981;SDS011;37998;53.416;6.730;2022-11-18T14:36:39;46.95;;;30.55;;
51981;SDS011;37998;53.416;6.730;2022-11-18T14:39:12;27.00;;;20.27;;
51981;SDS011;37998;53.416;6.730;2022-11-18T14:41:51;23.55;;;17.50;;
51981;SDS011;37998;53.416;6.730;2022-11-18T14:44:18;29.25;;;19.65;;
51981;SDS011;37998;53.416;6.730;2022-11-18T14:46:46;30.55;;;19.35;;
51981;SDS011;37998;53.416;6.730;2022-11-18T14:49:26;27.13;;;19.40;;
51981;SDS011;37998;53.416;6.730;2022-11-18T14:51:54;30.38;;;19.70;;
51981;SDS011;37998;53.416;6.730;2022-11-18T14:54:21;25.60;;;18.30;;
51981;SDS011;37998;53.416;6.730;2022-11-18T14:56:49;24.02;;;18.13;;
51981;SDS011;37998;53.416;6.730;2022-11-18T14:59:18;29.27;;;21.35;;
51981;SDS011;37998;53.416;6.730;2022-11-18T15:01:45;26.05;;;19.05;;
51981;SDS011;37998;53.416;6.730;2022-11-18T15:04:12;26.42;;;18.90;;
51981;SDS011;37998;53.416;6.730;2022-11-18T15:06:38;22.38;;;18.02;;
51981;SDS011;37998;53.416;6.730;2022-11-18T15:09:04;22.98;;;17.02;;
51981;SDS011;37998;53.416;6.730;2022-11-18T15:11:34;23.23;;;17.23;;
51981;SDS011;37998;53.416;6.730;2022-11-18T15:14:00;22.92;;;16.42;;
51981;SDS011;37998;53.416;6.730;2022-11-18T15:16:27;24.23;;;17.05;;
51981;SDS011;37998;53.416;6.730;2022-11-18T15:18:55;20.30;;;16.92;;
51981;SDS011;37998;53.416;6.730;2022-11-18T15:21:23;21.30;;;16.67;;
51981;SDS011;37998;53.416;6.730;2022-11-18T15:23:49;24.30;;;18.48;;
51981;SDS011;37998;53.416;6.730;2022-11-18T15:26:19;25.23;;;19.05;;
51981;SDS011;37998;53.416;6.730;2022-11-18T15:28:46;23.20;;;17.88;;
51981;SDS011;37998;53.416;6.730;2022-11-18T15:31:13;20.90;;;17.00;;
51981;SDS011;37998;53.416;6.730;2022-11-18T15:33:39;21.38;;;17.45;;
51981;SDS011;37998;53.416;6.730;2022-11-18T15:36:12;21.83;;;17.85;;
51981;SDS011;37998;53.416;6.730;2022-11-18T15:38:42;21.85;;;17.95;;
51981;SDS011;37998;53.416;6.730;2022-11-18T15:41:14;23.60;;;18.15;;
51981;SDS011;37998;53.416;6.730;2022-11-18T15:43:45;22.63;;;18.38;;
51981;SDS011;37998;53.416;6.730;2022-11-18T15:46:13;23.35;;;18.27;;
51981;SDS011;37998;53.416;6.730;2022-11-18T15:48:39;23.45;;;18.35;;
51981;SDS011;37998;53.416;6.730;2022-11-18T15:51:05;23.88;;;19.38;;
51981;SDS011;37998;53.416;6.730;2022-11-18T15:53:31;25.75;;;19.15;;
51981;SDS011;37998;53.416;6.730;2022-11-18T16:01:17;25.20;;;19.60;;
51981;SDS011;37998;53.416;6.730;2022-11-18T16:03:43;28.20;;;21.25;;
51981;SDS011;37998;53.416;6.730;2022-11-18T16:06:08;25.52;;;19.83;;
51981;SDS011;37998;53.416;6.730;2022-11-18T16:08:34;28.38;;;21.15;;
51981;SDS011;37998;53.416;6.730;2022-11-18T16:11:00;26.90;;;22.25;;
51981;SDS011;37998;53.416;6.730;2022-11-18T16:13:44;25.42;;;20.23;;
51981;SDS011;37998;53.416;6.730;2022-11-18T16:16:19;28.30;;;21.08;;
51981;SDS011;37998;53.416;6.730;2022-11-18T16:18:45;29.05;;;21.80;;
51981;SDS011;37998;53.416;6.730;2022-11-18T16:21:11;29.85;;;21.35;;
51981;SDS011;37998;53.416;6.730;2022-11-18T16:23:37;28.55;;;22.35;;
51981;SDS011;37998;53.416;6.730;2022-11-18T16:26:03;30.75;;;23.23;;
51981;SDS011;37998;53.416;6.730;2022-11-18T16:28:28;27.30;;;20.90;;
51981;SDS011;37998;53.416;6.730;2022-11-18T16:30:54;30.08;;;22.83;;
51981;SDS011;37998;53.416;6.730;2022-11-18T16:33:38;29.88;;;22.08;;